Time;durP1;ratioP1;P1;durP2;ratioP2;P2;SDS_P1;SDS_P2;PMS_P1;PMS_P2;Temp;Humidity;BMP_temperature;BMP_pressure;BME280_temperature;BME280_humidity;BME280_pressure;Samples;Min_cycle;Max_cycle;Signal;HPM_P1;HPM_P2
2021/08/21 00:04:22;;;;;;;7.73;6.40;;;;;;;14.19;100.00;99348.06;10324513;28;20303;-75
2021/08/21 00:09:41;;;;;;;7.90;7.07;;;;;;;14.22;100.00;99354.72;10337399;28;20245;-74
2021/08/21 00:15:02;;;;;;;8.23;7.43;;;;;;;14.04;100.00;99351.38;10336508;28;20193;-75
2021/08/21 00:20:21;;;;;;;11.30;7.73;;;;;;;14.12;100.00;99347.34;10336430;28;20268;-75
2021/08/21 00:25:40;;;;;;;8.50;7.40;;;;;;;13.96;100.00;99352.69;10336069;28;20174;-74
2021/08/21 00:30:59;;;;;;;11.03;7.90;;;;;;;13.80;100.00;99358.03;10336287;28;20213;-77
2021/08/21 00:36:19;;;;;;;9.23;8.20;;;;;;;13.75;100.00;99344.66;10335804;28;20185;-76
2021/08/21 00:41:38;;;;;;;8.87;7.80;;;;;;;13.62;100.00;99351.91;10334927;28;20225;-74
2021/08/21 00:47:15;;;;;;;8.90;7.63;;;;;;;13.56;100.00;99350.81;10336477;28;20186;-75
2021/08/21 00:52:34;;;;;;;9.67;8.37;;;;;;;13.62;100.00;99354.69;10335994;28;20636;-74
2021/08/21 00:57:54;;;;;;;14.00;8.30;;;;;;;13.48;100.00;99351.31;10333219;28;20182;-75
2021/08/21 01:03:13;;;;;;;8.70;7.80;;;;;;;13.56;100.00;99353.56;10335725;28;20284;-76
2021/08/21 01:08:33;;;;;;;8.27;7.07;;;;;;;13.46;100.00;99353.69;10335055;28;20204;-76
2021/08/21 01:13:52;;;;;;;11.97;8.17;;;;;;;13.27;100.00;99346.00;10333896;28;20173;-76
2021/08/21 01:19:11;;;;;;;7.17;6.17;;;;;;;13.25;100.00;99353.91;10335004;28;20256;-77
2021/08/21 01:24:31;;;;;;;12.00;7.57;;;;;;;13.24;100.00;99346.84;10334413;28;20185;-76
2021/08/21 01:29:51;;;;;;;9.30;7.60;;;;;;;13.25;100.00;99348.38;10333196;28;20699;-76
2021/08/21 01:35:10;;;;;;;8.67;7.87;;;;;;;13.30;100.00;99340.44;10334471;28;20531;-77
2021/08/21 01:40:30;;;;;;;7.37;6.67;;;;;;;13.27;100.00;99341.28;10333742;28;20177;-76
2021/08/21 01:45:49;;;;;;;11.10;8.60;;;;;;;13.21;100.00;99350.41;10333051;28;20182;-76
2021/08/21 01:51:08;;;;;;;8.83;7.43;;;;;;;13.11;100.00;99345.75;10333514;28;20311;-74
2021/08/21 01:56:28;;;;;;;10.73;8.10;;;;;;;12.93;100.00;99354.22;10332131;28;20185;-76
2021/08/21 02:01:47;;;;;;;9.67;7.60;;;;;;;12.98;100.00;99347.47;10333239;28;20204;-76
2021/08/21 02:07:07;;;;;;;9.73;8.23;;;;;;;13.05;100.00;99350.16;10333532;28;20189;-76
2021/08/21 02:12:26;;;;;;;15.33;8.03;;;;;;;12.90;100.00;99354.25;10330008;28;20212;-75
2021/08/21 02:17:45;;;;;;;9.70;8.70;;;;;;;12.95;100.00;99346.31;10333498;28;20169;-76
2021/08/21 02:23:04;;;;;;;10.00;8.30;;;;;;;12.96;100.00;99345.09;10332160;28;20182;-76
2021/08/21 02:28:23;;;;;;;12.93;7.70;;;;;;;13.00;100.00;99342.34;10331927;28;20217;-75
2021/08/21 02:33:42;;;;;;;15.93;8.00;;;;;;;12.88;100.00;99351.88;10332051;28;20177;-75
2021/08/21 02:39:01;;;;;;;9.90;8.10;;;;;;;12.81;100.00;99342.88;10332135;28;20169;-75
2021/08/21 02:44:20;;;;;;;12.00;8.60;;;;;;;12.67;100.00;99339.44;10331070;28;20213;-75
2021/08/21 02:49:39;;;;;;;8.73;7.83;;;;;;;12.68;100.00;99333.50;10331583;28;20201;-76
2021/08/21 02:54:58;;;;;;;11.83;8.63;;;;;;;12.58;100.00;99337.16;10331252;28;20628;-75
2021/08/21 03:00:17;;;;;;;11.90;8.37;;;;;;;12.61;100.00;99336.31;10331483;28;20185;-75
2021/08/21 03:05:38;;;;;;;9.30;8.30;;;;;;;12.56;100.00;99339.53;10332472;28;20656;-75
2021/08/21 03:10:57;;;;;;;9.83;8.83;;;;;;;12.43;100.00;99330.16;10330914;28;20584;-75
2021/08/21 03:16:16;;;;;;;9.87;7.90;;;;;;;12.47;100.00;99330.91;10332364;28;20181;-75
2021/08/21 03:21:35;;;;;;;9.10;8.20;;;;;;;12.46;100.00;99334.09;10332887;28;20272;-75
2021/08/21 03:26:54;;;;;;;9.10;8.20;;;;;;;12.34;100.00;99331.78;10337027;28;20185;-74
2021/08/21 03:32:16;;;;;;;9.17;8.23;;;;;;;12.24;100.00;99333.44;10337542;28;20205;-76
2021/08/21 03:37:35;;;;;;;8.90;7.60;;;;;;;12.20;100.00;99343.69;10339186;28;20285;-76
2021/08/21 03:42:55;;;;;;;12.17;7.93;;;;;;;12.46;100.00;99340.38;10336340;28;20224;-76
2021/08/21 03:48:14;;;;;;;13.33;9.30;;;;;;;12.43;100.00;99346.72;10337747;28;20213;-77
2021/08/21 03:53:33;;;;;;;14.00;8.73;;;;;;;12.20;100.00;99346.47;10338354;28;20272;-76
2021/08/21 03:58:52;;;;;;;10.63;8.77;;;;;;;12.23;100.00;99355.91;10337110;28;20173;-76
2021/08/21 04:04:11;;;;;;;9.73;8.03;;;;;;;12.05;100.00;99344.97;10336966;28;20209;-76
2021/08/21 04:09:30;;;;;;;8.53;7.50;;;;;;;12.11;100.00;99348.91;10337692;28;20686;-76
2021/08/21 04:14:49;;;;;;;10.87;8.40;;;;;;;11.95;100.00;99343.06;10335557;28;20174;-75
2021/08/21 04:20:08;;;;;;;15.40;7.90;;;;;;;11.91;100.00;99340.72;10337524;28;20178;-76
2021/08/21 04:25:28;;;;;;;10.80;8.13;;;;;;;11.93;100.00;99343.88;10335774;28;20189;-76
2021/08/21 04:30:46;;;;;;;11.20;8.60;;;;;;;11.86;100.00;99344.69;10336610;28;20251;-76
2021/08/21 04:36:05;;;;;;;9.20;7.20;;;;;;;11.88;100.00;99350.59;10336191;28;20173;-76
2021/08/21 04:41:24;;;;;;;10.07;7.60;;;;;;;11.94;100.00;99349.78;10334657;28;20225;-77
2021/08/21 04:46:44;;;;;;;9.27;7.40;;;;;;;12.10;100.00;99354.78;10336503;28;20174;-78
2021/08/21 04:52:04;;;;;;;13.10;8.53;;;;;;;12.12;100.00;99363.47;10335469;28;20213;-77
2021/08/21 04:57:23;;;;;;;10.23;7.77;;;;;;;12.16;100.00;99364.22;10334897;28;20535;-77
2021/08/21 05:02:42;;;;;;;11.33;7.57;;;;;;;12.33;100.00;99375.16;10335807;28;20293;-77
2021/08/21 05:08:01;;;;;;;8.13;7.33;;;;;;;12.48;100.00;99375.88;10334385;28;20175;-77
2021/08/21 05:13:20;;;;;;;13.20;8.60;;;;;;;12.53;100.00;99376.19;10334308;28;20182;-78
2021/08/21 05:18:45;;;;;;;11.30;8.30;;;;;;;12.67;100.00;99373.34;10334308;28;20185;-77
2021/08/21 05:24:04;;;;;;;10.67;8.27;;;;;;;12.86;100.00;99381.06;10334463;28;20243;-77
2021/08/21 05:29:23;;;;;;;9.97;7.80;;;;;;;13.05;100.00;99375.03;10299966;28;20599;-76
2021/08/21 05:34:42;;;;;;;11.83;8.57;;;;;;;13.31;100.00;99382.69;10333521;28;20170;-77
2021/08/21 05:40:01;;;;;;;10.43;8.03;;;;;;;13.62;100.00;99372.06;10333153;28;20178;-78
2021/08/21 05:45:20;;;;;;;12.50;9.63;;;;;;;13.99;100.00;99377.53;10293581;28;20222;-76
2021/08/21 05:50:39;;;;;;;10.53;8.30;;;;;;;14.34;100.00;99370.78;10293674;28;20210;-76
2021/08/21 05:55:58;;;;;;;12.83;9.80;;;;;;;14.66;100.00;99371.88;10292382;28;20178;-75
2021/08/21 06:01:17;;;;;;;11.07;9.10;;;;;;;14.93;100.00;99383.69;10292642;28;20198;-78
2021/08/21 06:06:36;;;;;;;11.70;9.30;;;;;;;15.32;100.00;99387.38;10292320;28;20178;-77
2021/08/21 06:11:55;;;;;;;13.13;9.47;;;;;;;15.79;100.00;99389.66;10291586;28;20209;-76
2021/08/21 06:17:14;;;;;;;13.47;9.07;;;;;;;16.18;100.00;99397.97;10294300;28;20174;-79
2021/08/21 06:22:33;;;;;;;13.33;9.93;;;;;;;16.43;100.00;99404.59;10332892;28;20272;-79
2021/08/21 06:27:52;;;;;;;11.37;8.90;;;;;;;16.51;98.96;99405.22;10331746;28;20567;-78
2021/08/21 06:33:11;;;;;;;11.63;9.17;;;;;;;16.72;98.24;99408.28;10333089;28;20205;-78
2021/08/21 06:38:30;;;;;;;15.30;9.17;;;;;;;16.73;93.94;99409.06;10333048;28;20173;-76
2021/08/21 06:43:49;;;;;;;12.80;10.20;;;;;;;16.64;94.47;99409.66;10331295;28;20214;-76
2021/08/21 06:49:08;;;;;;;9.50;8.50;;;;;;;16.73;96.11;99400.72;10332264;28;20217;-76
2021/08/21 06:54:27;;;;;;;11.07;9.87;;;;;;;17.01;94.08;99415.53;10332468;28;20211;-76
2021/08/21 06:59:47;;;;;;;13.13;9.70;;;;;;;17.54;93.58;99401.06;10337661;28;20546;-76
2021/08/21 07:05:07;;;;;;;9.87;8.90;;;;;;;17.92;89.81;99402.03;10339361;28;20200;-78
2021/08/21 07:10:26;;;;;;;13.00;7.97;;;;;;;18.23;89.14;99403.16;10338857;28;20292;-76
2021/08/21 07:15:45;;;;;;;9.70;8.70;;;;;;;18.55;86.95;99404.53;10339886;28;20201;-78
2021/08/21 07:21:06;;;;;;;11.60;8.97;;;;;;;19.03;85.72;99386.66;10339685;28;20185;-77
2021/08/21 07:26:26;;;;;;;13.70;8.57;;;;;;;19.44;82.05;99387.28;10336974;28;20193;-76
2021/08/21 07:31:45;;;;;;;11.13;9.00;;;;;;;20.23;78.49;99385.63;10338871;28;20220;-76
2021/08/21 07:37:04;;;;;;;11.57;9.00;;;;;;;20.96;74.86;99383.50;10339221;28;20186;-77
2021/08/21 07:42:23;;;;;;;10.20;8.97;;;;;;;21.61;71.49;99388.81;10336360;28;20221;-79
2021/08/21 07:47:43;;;;;;;11.00;9.03;;;;;;;22.31;68.57;99394.88;10321302;28;20277;-78
2021/08/21 07:53:01;;;;;;;10.17;8.43;;;;;;;22.68;69.54;99383.06;10324843;28;20225;-77
2021/08/21 07:58:21;;;;;;;12.70;9.17;;;;;;;23.51;64.59;99384.50;10336645;28;20542;-77
2021/08/21 08:03:40;;;;;;;11.47;8.60;;;;;;;24.17;62.06;99388.66;10338073;28;20189;-78
2021/08/21 08:08:59;;;;;;;9.20;8.03;;;;;;;24.60;60.68;99391.50;10336553;28;20208;-79
2021/08/21 08:14:18;;;;;;;10.10;6.97;;;;;;;24.77;56.76;99391.81;10336216;28;20222;-77
2021/08/21 08:19:37;;;;;;;9.30;7.40;;;;;;;25.12;56.65;99385.72;10336625;28;20186;-75
2021/08/21 08:24:56;;;;;;;7.63;7.07;;;;;;;24.91;56.82;99388.19;10282760;28;20239;-77
2021/08/21 08:30:16;;;;;;;6.93;6.43;;;;;;;24.85;56.00;99382.47;10295673;28;20209;-77
2021/08/21 08:35:35;;;;;;;7.20;6.70;;;;;;;25.25;54.49;99374.91;10312607;28;20182;-77
2021/08/21 08:40:54;;;;;;;7.13;6.27;;;;;;;25.78;55.19;99385.88;10308059;28;20299;-77
2021/08/21 08:46:16;;;;;;;6.40;5.80;;;;;;;26.19;54.04;99388.13;10336355;28;20178;-78
2021/08/21 08:51:36;;;;;;;6.90;6.40;;;;;;;26.50;51.99;99376.91;10319852;28;20288;-79
2021/08/21 08:56:55;;;;;;;6.30;5.80;;;;;;;26.77;52.15;99392.06;10320202;28;20185;-78
2021/08/21 09:02:36;;;;;;;10.17;6.10;;;;;;;26.78;50.72;99381.53;10335780;28;20194;-79
2021/08/21 09:07:57;;;;;;;8.43;5.20;;;;;;;26.59;51.45;99386.00;10335426;28;20189;-77
2021/08/21 09:13:18;;;;;;;7.10;5.20;;;;;;;26.79;51.34;99389.50;10334197;28;20264;-78
2021/08/21 09:18:37;;;;;;;5.63;5.23;;;;;;;27.41;47.93;99386.63;10335058;28;20185;-78
2021/08/21 09:23:56;;;;;;;6.43;5.97;;;;;;;27.46;47.35;99386.66;10335061;28;20177;-78
2021/08/21 09:29:27;;;;;;;5.37;4.97;;;;;;;27.65;47.63;99393.47;10333428;28;20217;-77
2021/08/21 09:34:48;;;;;;;5.07;4.67;;;;;;;27.63;47.27;99384.72;10333130;28;20185;-76
2021/08/21 09:40:07;;;;;;;4.63;4.33;;;;;;;27.75;48.24;99389.13;10334436;28;20268;-78
2021/08/21 09:45:27;;;;;;;5.23;4.93;;;;;;;28.35;44.37;99380.81;10331399;28;20685;-79
2021/08/21 09:50:46;;;;;;;4.70;4.30;;;;;;;29.28;42.32;99380.06;10333981;28;20213;-79
2021/08/21 09:56:11;;;;;;;4.10;3.70;;;;;;;30.56;38.77;99379.78;10332761;28;20173;-79
2021/08/21 10:01:31;;;;;;;4.50;4.10;;;;;;;31.13;38.70;99366.91;10333828;28;20205;-79
2021/08/21 10:06:50;;;;;;;3.90;3.60;;;;;;;29.64;38.01;99368.38;10332330;28;20193;-78
2021/08/21 10:12:12;;;;;;;3.90;3.70;;;;;;;29.14;38.42;99358.47;10331929;28;20201;-79
2021/08/21 10:17:32;;;;;;;5.00;3.40;;;;;;;29.13;39.05;99362.59;10333503;28;20181;-79
2021/08/21 10:22:51;;;;;;;3.67;3.47;;;;;;;28.87;39.01;99356.44;10333369;28;20181;-77
2021/08/21 10:28:12;;;;;;;4.40;4.10;;;;;;;29.14;41.61;99349.97;10330926;28;20227;-79
2021/08/21 10:33:54;;;;;;;3.80;3.60;;;;;;;31.09;36.79;99338.00;10337463;28;20186;-78
2021/08/21 10:39:16;;;;;;;4.40;3.90;;;;;;;32.03;35.78;99341.28;10300105;28;20189;-77
2021/08/21 10:44:42;;;;;;;5.07;3.73;;;;;;;32.36;34.82;99320.88;10299021;28;20229;-78
2021/08/21 10:50:14;;;;;;;11.37;3.80;;;;;;;32.86;35.99;99320.84;10300594;28;20210;-77
2021/08/21 10:55:43;;;;;;;3.73;3.43;;;;;;;32.61;34.37;99322.31;10299741;28;20186;-76
2021/08/21 11:01:06;;;;;;;4.47;3.47;;;;;;;32.79;32.27;99322.22;10300078;28;20198;-78
2021/08/21 11:06:43;;;;;;;3.30;2.97;;;;;;;33.54;34.01;99312.00;10320129;28;20242;-78
2021/08/21 11:12:02;;;;;;;3.73;2.93;;;;;;;33.55;33.40;99319.25;10338666;28;20209;-78
2021/08/21 11:17:35;;;;;;;3.07;2.83;;;;;;;34.62;32.12;99302.28;10339907;28;20636;-78
2021/08/21 11:23:06;;;;;;;4.47;3.10;;;;;;;34.27;33.46;99304.94;10339715;28;20181;-78
2021/08/21 11:28:29;;;;;;;3.60;3.27;;;;;;;34.15;32.31;99297.97;10338266;28;20209;-77
2021/08/21 11:33:53;;;;;;;2.73;2.53;;;;;;;34.37;31.26;99291.72;10339466;28;20256;-77
2021/08/21 11:39:12;;;;;;;3.00;2.80;;;;;;;34.92;30.03;99279.66;10299040;28;20232;-78
2021/08/21 11:44:31;;;;;;;3.40;3.20;;;;;;;33.88;30.17;99285.06;10316230;28;20623;-77
2021/08/21 11:49:50;;;;;;;7.93;3.23;;;;;;;34.11;29.19;99273.94;10338488;28;20205;-78
2021/08/21 11:55:10;;;;;;;3.83;2.87;;;;;;;33.28;30.14;99271.34;10338554;28;20200;-78
2021/08/21 12:00:32;;;;;;;3.50;3.20;;;;;;;33.94;32.20;99265.72;10337127;28;20200;-77
2021/08/21 12:05:51;;;;;;;3.10;2.90;;;;;;;34.57;29.45;99265.28;10336564;28;20193;-78
2021/08/21 12:11:09;;;;;;;3.10;2.90;;;;;;;34.88;29.59;99264.94;10335462;28;20208;-78
2021/08/21 12:16:30;;;;;;;3.27;3.07;;;;;;;33.96;30.53;99257.38;10337702;28;20643;-78
2021/08/21 12:21:55;;;;;;;3.30;3.10;;;;;;;34.34;31.51;99242.19;10336526;28;20173;-78
2021/08/21 12:27:28;;;;;;;4.00;3.13;;;;;;;34.04;30.17;99248.91;10335185;28;20204;-77
2021/08/21 12:32:47;;;;;;;3.07;2.83;;;;;;;34.96;28.51;99245.75;10335019;28;20205;-78
2021/08/21 12:38:07;;;;;;;3.60;3.30;;;;;;;35.04;28.79;99243.72;10336295;28;20224;-78
2021/08/21 12:43:29;;;;;;;3.10;2.90;;;;;;;35.17;28.69;99243.63;10333850;28;20229;-78
2021/08/21 12:48:48;;;;;;;3.37;3.17;;;;;;;34.50;29.74;99243.06;10336457;28;20197;-78
2021/08/21 12:54:11;;;;;;;3.37;3.17;;;;;;;34.76;29.98;99232.28;10335476;28;20173;-77
2021/08/21 12:59:30;;;;;;;7.00;3.50;;;;;;;33.91;30.15;99231.78;10333407;28;20263;-78
2021/08/21 13:05:00;;;;;;;3.93;3.13;;;;;;;35.11;29.82;99228.72;10335386;28;20188;-78
2021/08/21 13:10:22;;;;;;;3.80;3.60;;;;;;;35.36;29.41;99224.84;10334255;28;20209;-78
2021/08/21 13:15:41;;;;;;;3.43;3.13;;;;;;;35.77;28.92;99210.34;10335517;28;20176;-78
2021/08/21 13:21:02;;;;;;;3.83;3.63;;;;;;;34.81;30.68;99199.16;10334360;28;20568;-77
2021/08/21 13:26:21;;;;;;;3.70;3.40;;;;;;;35.11;30.65;99200.88;10332875;28;20211;-77
2021/08/21 13:31:40;;;;;;;4.07;3.87;;;;;;;35.24;29.47;99197.88;10334515;28;20205;-77
2021/08/21 13:37:13;;;;;;;5.73;3.87;;;;;;;32.78;32.79;99195.28;10334576;28;20189;-78
2021/08/21 13:42:33;;;;;;;4.47;4.13;;;;;;;32.02;35.21;99191.69;10332949;28;20225;-77
2021/08/21 13:47:52;;;;;;;4.33;4.00;;;;;;;33.54;32.33;99187.22;10333219;28;20671;-77
2021/08/21 13:53:11;;;;;;;4.73;3.70;;;;;;;31.14;36.05;99168.69;10333210;28;20189;-78
2021/08/21 13:58:32;;;;;;;5.40;4.20;;;;;;;32.11;33.58;99170.59;10332566;28;20193;-77
2021/08/21 14:03:51;;;;;;;4.50;4.10;;;;;;;33.65;32.67;99169.88;10333826;28;20639;-77
2021/08/21 14:09:11;;;;;;;4.17;3.97;;;;;;;34.42;31.73;99163.00;10333585;28;20213;-76
2021/08/21 14:14:30;;;;;;;4.90;4.60;;;;;;;35.11;31.01;99157.97;10331282;28;20200;-77
2021/08/21 14:19:49;;;;;;;4.37;4.07;;;;;;;31.50;35.22;99164.31;10333092;28;20184;-76
2021/08/21 14:25:09;;;;;;;4.37;4.17;;;;;;;30.61;36.35;99163.88;10331974;28;20536;-75
2021/08/21 14:30:28;;;;;;;6.10;5.00;;;;;;;29.70;38.62;99150.72;10330707;28;20611;-76
2021/08/21 14:35:47;;;;;;;4.47;4.00;;;;;;;31.22;37.55;99144.03;10332130;28;20185;-76
2021/08/21 14:41:06;;;;;;;4.97;4.77;;;;;;;32.44;34.68;99134.53;10330738;28;20304;-76
2021/08/21 14:46:25;;;;;;;5.30;5.00;;;;;;;33.25;33.80;99141.22;10332585;28;20268;-76
2021/08/21 14:51:44;;;;;;;4.83;4.53;;;;;;;31.80;35.39;99129.44;10331455;28;20217;-76
2021/08/21 14:57:03;;;;;;;5.07;4.60;;;;;;;32.47;35.42;99124.91;10330298;28;20193;-76
2021/08/21 15:02:22;;;;;;;5.03;4.60;;;;;;;33.52;33.04;99120.59;10332714;28;20185;-76
2021/08/21 15:07:41;;;;;;;4.50;4.27;;;;;;;34.07;33.45;99131.50;10332623;28;20932;-77
2021/08/21 15:13:00;;;;;;;4.80;4.50;;;;;;;34.38;32.35;99114.00;10329418;28;20208;-77
2021/08/21 15:18:19;;;;;;;5.10;4.60;;;;;;;33.77;33.44;99116.88;10334524;28;20520;-76
2021/08/21 15:23:38;;;;;;;5.30;5.00;;;;;;;32.29;35.69;99118.53;10339760;28;20169;-77
2021/08/21 15:28:57;;;;;;;5.37;4.80;;;;;;;32.71;34.59;99104.00;10337399;28;20201;-76
2021/08/21 15:34:16;;;;;;;5.87;5.47;;;;;;;32.83;36.00;99102.44;10338410;28;20174;-79
2021/08/21 15:39:36;;;;;;;4.87;4.57;;;;;;;32.62;34.34;99096.66;10339325;28;20181;-79
2021/08/21 15:44:56;;;;;;;5.00;4.70;;;;;;;32.52;36.38;99089.06;10335900;28;20220;-78
2021/08/21 15:50:16;;;;;;;4.60;4.30;;;;;;;32.66;35.54;99090.63;10338648;28;20205;-79
2021/08/21 15:55:34;;;;;;;6.30;5.33;;;;;;;32.39;35.20;99080.50;10337415;28;20209;-78
2021/08/21 16:00:53;;;;;;;6.40;4.83;;;;;;;31.94;36.35;99082.63;10338476;28;20180;-79
2021/08/21 16:06:12;;;;;;;4.47;4.17;;;;;;;31.88;37.44;99079.13;10338372;28;20177;-77
2021/08/21 16:11:33;;;;;;;5.47;4.93;;;;;;;31.74;37.59;99071.09;10309933;28;20676;-77
2021/08/21 16:16:52;;;;;;;5.27;4.83;;;;;;;31.69;37.48;99066.28;10333836;28;20207;-76
2021/08/21 16:22:10;;;;;;;4.77;4.47;;;;;;;31.34;37.27;99071.50;10336477;28;20252;-78
2021/08/21 16:27:31;;;;;;;4.90;4.60;;;;;;;31.07;38.61;99061.28;10312106;28;20601;-77
2021/08/21 16:32:50;;;;;;;4.90;4.60;;;;;;;30.83;39.42;99055.66;10295236;28;20202;-77
2021/08/21 16:38:10;;;;;;;5.37;4.97;;;;;;;30.55;39.80;99052.41;10296891;28;20186;-78
2021/08/21 16:43:29;;;;;;;5.73;4.10;;;;;;;30.19;41.27;99061.56;10330424;28;20213;-76
2021/08/21 16:48:48;;;;;;;5.17;4.73;;;;;;;30.02;42.24;99058.94;10335585;28;20217;-78
2021/08/21 16:54:07;;;;;;;5.33;4.77;;;;;;;29.77;42.73;99052.97;10336215;28;20185;-79
2021/08/21 16:59:26;;;;;;;4.90;4.60;;;;;;;29.60;43.08;99055.19;10334503;28;20193;-78
2021/08/21 17:04:45;;;;;;;5.33;4.87;;;;;;;29.35;43.37;99057.16;10335744;28;20217;-78
2021/08/21 17:10:05;;;;;;;5.10;4.70;;;;;;;29.14;44.08;99055.25;10334532;28;20208;-78
2021/08/21 17:15:24;;;;;;;6.90;5.07;;;;;;;28.86;45.54;99046.16;10330161;28;20193;-77
2021/08/21 17:20:44;;;;;;;6.03;4.93;;;;;;;28.48;45.91;99041.44;10316680;28;20216;-78
2021/08/21 17:26:03;;;;;;;5.73;5.33;;;;;;;28.05;47.33;99041.53;10333962;28;20261;-78
2021/08/21 17:31:22;;;;;;;5.83;5.20;;;;;;;27.64;48.71;99034.94;10334293;28;20245;-78
2021/08/21 17:36:41;;;;;;;5.30;4.77;;;;;;;27.56;49.08;99033.88;10333916;28;20905;-78
2021/08/21 17:42:00;;;;;;;5.37;5.07;;;;;;;27.45;49.57;99037.47;10332009;28;20233;-77
2021/08/21 17:47:19;;;;;;;7.10;4.77;;;;;;;27.20;50.47;99034.91;10333434;28;20181;-77
2021/08/21 17:52:39;;;;;;;5.10;4.70;;;;;;;26.97;51.51;99038.19;10333604;28;20213;-77
2021/08/21 17:57:59;;;;;;;10.03;5.27;;;;;;;26.81;52.89;99036.09;10332412;28;20209;-77
2021/08/21 18:03:19;;;;;;;9.70;5.63;;;;;;;26.53;55.23;99037.28;10333288;28;20201;-77
2021/08/21 18:08:38;;;;;;;5.70;5.27;;;;;;;26.18;56.55;99039.66;10332374;28;20205;-78
2021/08/21 18:13:57;;;;;;;9.67;5.33;;;;;;;25.96;57.63;99042.38;10328763;28;20656;-78
2021/08/21 18:19:17;;;;;;;5.77;5.30;;;;;;;25.67;58.59;99045.50;10332533;28;20185;-77
2021/08/21 18:24:38;;;;;;;5.87;5.37;;;;;;;25.47;60.17;99042.78;10322921;28;20220;-77
2021/08/21 18:30:02;;;;;;;7.80;6.17;;;;;;;24.92;61.14;99040.69;10330396;28;20217;-77
2021/08/21 18:35:21;;;;;;;7.20;5.70;;;;;;;24.63;62.36;99047.31;10332710;28;20189;-79
2021/08/21 18:40:44;;;;;;;8.80;6.13;;;;;;;24.47;63.69;99039.44;10331256;28;20533;-77
2021/08/21 18:46:03;;;;;;;8.10;6.73;;;;;;;24.26;65.20;99040.69;10331948;28;20193;-78
2021/08/21 18:51:22;;;;;;;6.83;6.23;;;;;;;23.78;67.10;99049.22;10332022;28;20217;-79
2021/08/21 18:56:41;;;;;;;10.73;6.57;;;;;;;;;;10337810;28;20209;-78
2021/08/21 19:02:00;;;;;;;11.37;6.30;;;;;;;23.16;70.27;99043.06;10340317;28;20632;-78
2021/08/21 19:07:19;;;;;;;10.73;6.67;;;;;;;22.94;70.61;99044.69;10339873;28;20193;-78
2021/08/21 19:12:38;;;;;;;8.73;6.27;;;;;;;22.91;70.70;99048.47;10338092;28;20213;-78
2021/08/21 19:17:57;;;;;;;7.73;7.13;;;;;;;22.79;71.27;99046.69;10338605;28;20185;-78
2021/08/21 19:23:16;;;;;;;9.40;8.40;;;;;;;22.65;72.10;99042.63;10336042;28;20652;-78
2021/08/21 19:28:35;;;;;;;19.30;13.83;;;;;;;22.39;73.64;99046.41;10331815;28;20232;-79
2021/08/21 19:33:55;;;;;;;10.77;9.70;;;;;;;22.29;75.65;99056.13;10337131;28;20189;-78
2021/08/21 19:39:14;;;;;;;10.80;9.73;;;;;;;22.00;76.88;99050.41;10338818;28;20197;-78
2021/08/21 19:44:34;;;;;;;11.07;10.07;;;;;;;21.76;77.78;99049.59;10336902;28;20248;-77
2021/08/21 19:49:53;;;;;;;11.10;8.73;;;;;;;21.73;77.24;99056.16;10337838;28;20675;-78
2021/08/21 19:55:13;;;;;;;15.30;11.60;;;;;;;21.66;77.83;99057.75;10332011;28;20643;-77
2021/08/21 20:00:32;;;;;;;31.70;23.37;;;;;;;21.64;77.71;99054.66;10332026;28;20181;-79
2021/08/21 20:05:51;;;;;;;24.20;20.20;;;;;;;21.67;77.17;99058.06;10337621;28;20185;-79
2021/08/21 20:11:11;;;;;;;28.00;19.60;;;;;;;21.67;76.83;99053.69;10335958;28;20209;-79
2021/08/21 20:16:30;;;;;;;11.63;10.10;;;;;;;21.58;76.12;99053.75;10337024;28;20189;-77
2021/08/21 20:21:49;;;;;;;9.63;8.63;;;;;;;21.52;76.95;99050.81;10331758;28;20205;-79
2021/08/21 20:27:08;;;;;;;7.47;6.73;;;;;;;21.33;77.94;99042.91;10335753;28;20539;-78
2021/08/21 20:32:27;;;;;;;8.67;7.17;;;;;;;21.24;77.94;99045.78;10336620;28;20213;-78
2021/08/21 20:37:46;;;;;;;6.83;6.30;;;;;;;21.17;78.72;99046.09;10337036;28;20636;-77
2021/08/21 20:43:05;;;;;;;7.30;6.70;;;;;;;21.03;79.59;99041.16;10335139;28;20575;-76
2021/08/21 20:48:24;;;;;;;8.00;7.20;;;;;;;20.87;81.10;99035.91;10333684;28;20181;-77
2021/08/21 20:53:43;;;;;;;12.10;7.43;;;;;;;20.79;81.54;99034.69;10335283;28;20184;-77
2021/08/21 20:59:02;;;;;;;8.00;7.40;;;;;;;20.60;81.94;99033.09;10334292;28;20185;-77
2021/08/21 21:04:21;;;;;;;8.27;7.40;;;;;;;20.67;83.12;99038.41;10335167;28;20241;-77
2021/08/21 21:09:40;;;;;;;12.83;10.37;;;;;;;20.35;85.08;99039.03;10319728;28;20221;-78
2021/08/21 21:15:02;;;;;;;12.47;9.70;;;;;;;20.11;86.52;99037.31;10333344;28;20181;-77
2021/08/21 21:20:21;;;;;;;10.57;9.30;;;;;;;20.00;87.86;99039.00;10333934;28;20181;-77
2021/08/21 21:25:42;;;;;;;9.90;8.90;;;;;;;19.83;88.32;99023.72;10334104;28;20264;-78
2021/08/21 21:31:02;;;;;;;12.87;9.50;;;;;;;19.90;88.55;99029.00;10334060;28;20212;-77
2021/08/21 21:36:21;;;;;;;13.90;9.87;;;;;;;19.75;89.29;99030.84;10334342;28;20189;-79
2021/08/21 21:41:40;;;;;;;18.80;9.60;;;;;;;19.59;90.25;99028.31;10331992;28;20228;-77
2021/08/21 21:47:01;;;;;;;9.53;8.63;;;;;;;19.44;90.94;99030.13;10332443;28;20189;-77
2021/08/21 21:52:20;;;;;;;16.10;14.43;;;;;;;19.40;91.75;99037.84;10331999;28;20296;-78
2021/08/21 21:57:42;;;;;;;15.00;9.47;;;;;;;19.19;92.14;99035.91;10330936;28;20197;-77
2021/08/21 22:03:01;;;;;;;11.03;9.00;;;;;;;19.10;94.47;99035.88;10331060;28;20189;-77
2021/08/21 22:08:20;;;;;;;9.50;8.37;;;;;;;18.97;95.09;99037.16;10330345;28;20561;-77
2021/08/21 22:13:39;;;;;;;11.20;9.33;;;;;;;18.79;97.25;99042.59;10307068;28;20212;-77
2021/08/21 22:18:58;;;;;;;13.77;8.90;;;;;;;18.45;98.93;99049.03;10329975;28;20185;-77
2021/08/21 22:24:17;;;;;;;11.60;10.00;;;;;;;18.43;99.54;99050.72;10331502;28;20185;-77
2021/08/21 22:29:36;;;;;;;14.37;9.10;;;;;;;18.33;100.00;99048.31;10327772;28;20208;-78
2021/08/21 22:34:55;;;;;;;15.30;10.20;;;;;;;18.24;100.00;99054.56;10330192;28;20181;-76
2021/08/21 22:40:13;;;;;;;9.27;8.33;;;;;;;18.11;100.00;99048.25;10330993;28;20189;-77
2021/08/21 22:45:33;;;;;;;46.40;28.50;;;;;;;18.08;100.00;99032.44;10289287;28;1164376;-77
2021/08/21 22:50:51;;;;;;;82.47;59.53;;;;;;;18.13;100.00;99022.72;10331157;28;20217;-77
2021/08/21 22:56:10;;;;;;;29.67;22.73;;;;;;;18.13;100.00;99025.50;10331268;28;20209;-78
2021/08/21 23:01:29;;;;;;;13.87;9.83;;;;;;;18.09;99.84;99033.22;10332193;28;20185;-77
2021/08/21 23:06:48;;;;;;;14.83;8.83;;;;;;;18.06;100.00;99031.31;10332221;28;20201;-76
2021/08/21 23:12:07;;;;;;;12.30;11.10;;;;;;;17.97;100.00;99043.13;10322912;28;20221;-77
2021/08/21 23:17:26;;;;;;;10.80;9.67;;;;;;;17.87;100.00;99043.50;10331537;28;20186;-76
2021/08/21 23:22:45;;;;;;;9.27;8.27;;;;;;;17.91;100.00;99038.63;10331298;28;20181;-76
2021/08/21 23:28:04;;;;;;;12.13;9.20;;;;;;;17.71;100.00;99038.09;10302999;28;20189;-77
2021/08/21 23:33:24;;;;;;;17.77;10.20;;;;;;;17.73;100.00;99039.19;10331264;28;20217;-77
2021/08/21 23:38:43;;;;;;;13.80;8.70;;;;;;;17.59;100.00;99039.66;10332844;28;20582;-77
2021/08/21 23:44:02;;;;;;;9.03;8.23;;;;;;;17.59;100.00;99030.53;10316965;28;20217;-78
2021/08/21 23:49:22;;;;;;;16.00;10.00;;;;;;;17.66;100.00;99011.59;10338214;28;20213;-78
2021/08/21 23:54:41;;;;;;;11.10;8.23;;;;;;;17.89;100.00;98997.28;10337921;28;20291;-77
